Time;durP1;ratioP1;P1;durP2;ratioP2;P2;SDS_P1;SDS_P2;PMS_P1;PMS_P2;Temp;Humidity;BMP_temperature;BMP_pressure;BME280_temperature;BME280_humidity;BME280_pressure;Samples;Min_cycle;Max_cycle;Signal;HPM_P1;HPM_P2
2023/03/21 00:02:22;;;;;;;6.97;2.15;;;;;;;;;;8311265;28;20030;-63
2023/03/21 00:06:23;;;;;;;6.00;1.98;;;;;;;;;;8308529;28;21067;-63
2023/03/21 00:10:23;;;;;;;6.13;1.70;;;;;;;;;;8308920;28;20071;-63
2023/03/21 00:14:24;;;;;;;4.32;1.55;;;;;;;;;;8307914;28;20112;-63
2023/03/21 00:18:25;;;;;;;7.28;1.90;;;;;;;;;;8307380;28;20052;-63
2023/03/21 00:22:27;;;;;;;6.38;1.90;;;;;;;;;;8310256;28;20025;-63
2023/03/21 00:26:27;;;;;;;4.47;1.80;;;;;;;;;;8309606;28;20029;-63
2023/03/21 00:30:27;;;;;;;4.35;1.80;;;;;;;;;;8308461;28;20080;-63
2023/03/21 00:34:27;;;;;;;4.07;1.83;;;;;;;;;;8310343;28;20487;-63
2023/03/21 00:38:28;;;;;;;3.22;1.55;;;;;;;;;;8308647;28;20022;-63
2023/03/21 00:42:28;;;;;;;7.40;2.72;;;;;;;;;;8306731;28;20108;-63
2023/03/21 00:46:28;;;;;;;6.75;2.17;;;;;;;;;;8309113;28;20156;-63
2023/03/21 00:50:28;;;;;;;6.97;2.45;;;;;;;;;;8307932;28;20098;-63
2023/03/21 00:54:28;;;;;;;8.45;2.25;;;;;;;;;;8308467;28;20029;-63
2023/03/21 00:58:29;;;;;;;5.82;2.40;;;;;;;;;;8309534;28;20057;-63
2023/03/21 01:02:29;;;;;;;7.53;3.08;;;;;;;;;;8309003;28;20033;-63
2023/03/21 01:06:30;;;;;;;6.05;2.13;;;;;;;;;;8308762;28;20025;-63
2023/03/21 01:10:30;;;;;;;8.23;2.95;;;;;;;;;;8308566;28;20362;-63
2023/03/21 01:14:30;;;;;;;5.10;1.98;;;;;;;;;;8310510;28;20142;-63
2023/03/21 01:18:31;;;;;;;6.53;1.90;;;;;;;;;;8308069;28;20033;-63
2023/03/21 01:22:31;;;;;;;2.92;1.88;;;;;;;;;;8307793;28;20075;-63
2023/03/21 01:26:32;;;;;;;6.43;2.20;;;;;;;;;;8310105;28;20044;-63
2023/03/21 01:30:32;;;;;;;7.30;2.30;;;;;;;;;;8312234;28;20632;-63
2023/03/21 01:34:33;;;;;;;7.32;2.40;;;;;;;;;;8312484;28;20153;-63
2023/03/21 01:38:33;;;;;;;5.28;2.40;;;;;;;;;;8314329;28;20063;-63
2023/03/21 01:42:33;;;;;;;6.07;2.50;;;;;;;;;;8314022;28;20037;-63
2023/03/21 01:46:38;;;;;;;6.90;2.57;;;;;;;;;;8313231;28;20029;-63
2023/03/21 01:50:39;;;;;;;4.50;2.05;;;;;;;;;;8312387;28;20966;-63
2023/03/21 01:54:40;;;;;;;5.70;2.55;;;;;;;;;;8314711;28;20381;-63
2023/03/21 01:58:40;;;;;;;8.10;2.50;;;;;;;;;;8313923;28;20056;-64
2023/03/21 02:02:49;;;;;;;6.15;2.17;;;;;;;;;;8312470;28;20647;-63
2023/03/21 02:06:59;;;;;;;4.25;2.45;;;;;;;;;;8313537;28;20039;-63
2023/03/21 02:10:59;;;;;;;6.25;2.10;;;;;;;;;;8314171;28;20044;-64
2023/03/21 02:15:00;;;;;;;9.73;2.63;;;;;;;;;;8313056;28;20037;-63
2023/03/21 02:19:19;;;;;;;7.23;2.70;;;;;;;;;;8314622;28;20040;-63
2023/03/21 02:23:37;;;;;;;6.47;2.22;;;;;;;;;;8315608;28;20437;-63
2023/03/21 02:28:06;;;;;;;8.13;2.50;;;;;;;;;;8314696;28;20031;-63
2023/03/21 02:32:08;;;;;;;8.13;2.25;;;;;;;;;;8312903;28;20037;-63
2023/03/21 02:36:21;;;;;;;4.30;2.30;;;;;;;;;;8316645;28;20179;-63
2023/03/21 02:40:23;;;;;;;3.50;2.50;;;;;;;;;;8316489;28;20025;-63
2023/03/21 02:44:29;;;;;;;5.72;2.40;;;;;;;;;;8312280;28;20020;-63
2023/03/21 02:48:33;;;;;;;3.70;2.42;;;;;;;;;;8313259;28;20450;-63
2023/03/21 02:52:35;;;;;;;16.63;8.48;;;;;;;;;;8315052;28;20780;-63
2023/03/21 02:56:35;;;;;;;8.80;4.53;;;;;;;;;;8314808;28;20518;-63
2023/03/21 03:00:37;;;;;;;5.47;3.05;;;;;;;;;;8313733;28;20037;-63
2023/03/21 03:04:37;;;;;;;3.90;2.67;;;;;;;;;;8313641;28;20030;-63
2023/03/21 03:08:42;;;;;;;5.13;2.67;;;;;;;;;;8313514;28;20084;-63
2023/03/21 03:12:48;;;;;;;6.22;2.60;;;;;;;;;;8314107;28;20025;-63
2023/03/21 03:16:57;;;;;;;7.47;2.70;;;;;;;;;;8314533;28;20025;-63
2023/03/21 03:21:06;;;;;;;6.10;2.83;;;;;;;;;;8314920;28;20031;-63
2023/03/21 03:25:10;;;;;;;5.65;2.67;;;;;;;;;;8313204;28;20119;-63
2023/03/21 03:29:11;;;;;;;;;;;;;;;;;;8313712;28;20112;-63
2023/03/21 03:33:15;;;;;;;3.10;2.20;;;;;;;;;;8313763;28;19916;-63
2023/03/21 03:37:19;;;;;;;5.13;2.20;;;;;;;;;;8312409;28;20028;-64
2023/03/21 03:41:24;;;;;;;6.03;2.50;;;;;;;;;;8310600;28;20025;-63
2023/03/21 03:45:28;;;;;;;3.78;2.42;;;;;;;;;;8311280;28;20477;-63
2023/03/21 03:49:31;;;;;;;4.25;2.72;;;;;;;;;;8310414;28;20040;-63
2023/03/21 03:53:35;;;;;;;4.37;2.50;;;;;;;;;;8311755;28;20032;-63
2023/03/21 03:57:36;;;;;;;4.82;2.50;;;;;;;;;;8312482;28;20021;-63
2023/03/21 04:01:36;;;;;;;5.28;2.58;;;;;;;;;;8312058;28;20044;-63
2023/03/21 04:05:36;;;;;;;4.30;2.63;;;;;;;;;;8292931;28;20631;-63
2023/03/21 04:09:36;;;;;;;8.32;3.33;;;;;;;;;;8312128;28;20025;-63
2023/03/21 04:13:37;;;;;;;7.90;3.00;;;;;;;;;;8311741;28;20097;-63
2023/03/21 04:17:38;;;;;;;6.53;3.00;;;;;;;;;;8311109;28;20031;-63
2023/03/21 04:21:38;;;;;;;6.03;2.90;;;;;;;;;;8310059;28;20029;-63
2023/03/21 04:25:38;;;;;;;6.75;2.45;;;;;;;;;;8309985;28;20028;-63
2023/03/21 04:29:39;;;;;;;7.80;3.30;;;;;;;;;;8308104;28;20064;-63
2023/03/21 04:33:39;;;;;;;3.70;2.70;;;;;;;;;;8308748;28;20059;-63
2023/03/21 04:37:40;;;;;;;6.03;2.83;;;;;;;;;;8312458;28;20033;-63
2023/03/21 04:41:41;;;;;;;3.90;2.70;;;;;;;;;;8311655;28;20029;-64
2023/03/21 04:45:41;;;;;;;6.75;2.83;;;;;;;;;;8311341;28;20154;-64
2023/03/21 04:49:42;;;;;;;5.78;2.65;;;;;;;;;;8310272;28;20875;-63
2023/03/21 04:53:44;;;;;;;3.22;2.53;;;;;;;;;;8311139;28;20115;-64
2023/03/21 04:57:44;;;;;;;4.13;2.50;;;;;;;;;;8311933;28;20029;-63
2023/03/21 05:01:44;;;;;;;4.45;2.58;;;;;;;;;;8316098;28;20041;-63
2023/03/21 05:05:45;;;;;;;4.87;2.77;;;;;;;;;;8318573;28;20016;-64
2023/03/21 05:09:45;;;;;;;5.93;2.67;;;;;;;;;;8316308;28;20832;-63
2023/03/21 05:13:45;;;;;;;7.45;2.85;;;;;;;;;;8317196;28;20026;-63
2023/03/21 05:17:47;;;;;;;5.03;3.05;;;;;;;;;;8317971;28;20033;-63
2023/03/21 05:21:48;;;;;;;7.05;3.47;;;;;;;;;;8318939;28;20052;-63
2023/03/21 05:25:48;;;;;;;6.57;3.00;;;;;;;;;;8316052;28;20013;-63
2023/03/21 05:29:49;;;;;;;9.25;3.38;;;;;;;;;;8316750;28;20111;-63
2023/03/21 05:33:49;;;;;;;6.60;3.13;;;;;;;;;;8314831;28;20490;-63
2023/03/21 05:37:49;;;;;;;7.65;3.28;;;;;;;;;;8317194;28;20025;-64
2023/03/21 05:41:50;;;;;;;7.37;3.60;;;;;;;;;;8315621;28;20199;-63
2023/03/21 05:45:50;;;;;;;5.50;3.10;;;;;;;;;;8313655;28;20374;-63
2023/03/21 05:49:51;;;;;;;6.23;3.13;;;;;;;;;;8309807;28;20353;-63
2023/03/21 05:53:51;;;;;;;6.72;3.22;;;;;;;;;;8314167;28;20718;-63
2023/03/21 05:57:51;;;;;;;5.35;3.00;;;;;;;;;;8312234;28;20049;-63
2023/03/21 06:01:51;;;;;;;6.10;3.35;;;;;;;;;;8315036;28;20091;-63
2023/03/21 06:05:51;;;;;;;6.45;3.17;;;;;;;;;;8313740;28;20022;-63
2023/03/21 06:09:51;;;;;;;6.47;3.25;;;;;;;;;;8315183;28;20087;-63
2023/03/21 06:13:52;;;;;;;7.75;2.88;;;;;;;;;;8313152;28;20025;-63
2023/03/21 06:17:52;;;;;;;9.40;3.47;;;;;;;;;;8315275;28;20096;-63
2023/03/21 06:21:52;;;;;;;6.80;3.30;;;;;;;;;;8312886;28;20029;-63
2023/03/21 06:25:52;;;;;;;6.60;2.60;;;;;;;;;;8312724;28;20025;-63
2023/03/21 06:29:53;;;;;;;5.55;2.88;;;;;;;;;;8313774;28;20693;-63
2023/03/21 06:33:53;;;;;;;5.20;2.30;;;;;;;;;;8313138;28;20041;-63
2023/03/21 06:37:57;;;;;;;9.32;2.70;;;;;;;;;;8315901;28;20037;-63
2023/03/21 06:41:57;;;;;;;5.27;2.50;;;;;;;;;;8313429;28;20116;-63
2023/03/21 06:45:58;;;;;;;4.13;1.85;;;;;;;;;;8314235;28;20060;-64
2023/03/21 06:49:58;;;;;;;4.57;2.22;;;;;;;;;;8313173;28;20026;-64
2023/03/21 06:53:58;;;;;;;3.90;1.55;;;;;;;;;;8313735;28;20823;-63
2023/03/21 06:57:59;;;;;;;6.43;1.90;;;;;;;;;;8313301;28;20123;-63
2023/03/21 07:01:59;;;;;;;2.53;1.30;;;;;;;;;;8307786;28;20036;-64
2023/03/21 07:06:04;;;;;;;2.83;1.27;;;;;;;;;;8316187;28;20037;-64
2023/03/21 07:10:04;;;;;;;3.72;1.52;;;;;;;;;;8313848;28;20040;-63
2023/03/21 07:14:05;;;;;;;2.50;1.20;;;;;;;;;;8314913;28;20632;-64
2023/03/21 07:18:06;;;;;;;2.33;1.40;;;;;;;;;;8314055;28;20048;-63
2023/03/21 07:22:07;;;;;;;5.82;1.60;;;;;;;;;;8313021;28;20024;-63
2023/03/21 07:26:07;;;;;;;4.28;1.42;;;;;;;;;;8311466;28;20028;-63
2023/03/21 07:30:08;;;;;;;3.80;1.42;;;;;;;;;;8312476;28;20119;-63
2023/03/21 07:34:08;;;;;;;4.90;1.77;;;;;;;;;;8311389;28;20040;-63
2023/03/21 07:38:09;;;;;;;6.32;2.13;;;;;;;;;;8312909;28;20518;-63
2023/03/21 07:42:10;;;;;;;5.23;2.13;;;;;;;;;;8313431;28;20021;-63
2023/03/21 07:46:10;;;;;;;6.03;2.00;;;;;;;;;;8314108;28;20918;-63
2023/03/21 07:50:11;;;;;;;5.30;1.73;;;;;;;;;;8313212;28;20083;-64
2023/03/21 07:54:11;;;;;;;4.97;1.70;;;;;;;;;;8312826;28;20128;-63
2023/03/21 07:58:11;;;;;;;3.75;1.60;;;;;;;;;;8312520;28;20044;-63
2023/03/21 08:02:15;;;;;;;8.75;1.75;;;;;;;;;;8312211;28;20076;-63
2023/03/21 08:06:15;;;;;;;;;;;;;;;;;;8312980;28;20052;-63
2023/03/21 08:10:16;;;;;;;4.50;1.85;;;;;;;;;;8312501;28;19912;-64
2023/03/21 08:14:16;;;;;;;4.65;1.58;;;;;;;;;;8311634;28;20033;-63
2023/03/21 08:18:16;;;;;;;7.05;3.92;;;;;;;;;;8310977;28;20059;-64
2023/03/21 08:22:17;;;;;;;8.98;3.80;;;;;;;;;;8313041;28;20021;-64
2023/03/21 08:26:18;;;;;;;6.95;3.47;;;;;;;;;;8313118;28;20032;-64
2023/03/21 08:30:20;;;;;;;5.53;2.45;;;;;;;;;;8310287;28;20516;-64
2023/03/21 08:34:21;;;;;;;9.45;3.70;;;;;;;;;;8311004;28;20025;-63
2023/03/21 08:38:22;;;;;;;8.43;3.58;;;;;;;;;;8311455;28;20039;-63
2023/03/21 08:42:22;;;;;;;9.25;3.85;;;;;;;;;;8311579;28;20029;-63
2023/03/21 08:46:22;;;;;;;6.18;2.63;;;;;;;;;;8310030;28;20402;-63
2023/03/21 08:50:23;;;;;;;5.55;2.35;;;;;;;;;;8311353;28;20941;-64
2023/03/21 08:54:23;;;;;;;6.85;3.13;;;;;;;;;;8311463;28;20021;-63
2023/03/21 08:58:24;;;;;;;6.97;2.83;;;;;;;;;;8312055;28;20029;-64
2023/03/21 09:02:24;;;;;;;5.15;2.05;;;;;;;;;;8312410;28;20055;-64
2023/03/21 09:06:26;;;;;;;13.30;5.30;;;;;;;;;;8310212;28;20048;-63
2023/03/21 09:10:26;;;;;;;8.20;3.22;;;;;;;;;;8311363;28;20042;-64
2023/03/21 09:14:26;;;;;;;3.70;1.97;;;;;;;;;;8310223;28;20059;-64
2023/03/21 09:22:47;;;;;;;6.88;1.73;;;;;;;;;;8311208;28;20032;-64
2023/03/21 09:26:49;;;;;;;2.83;1.95;;;;;;;;;;8311807;28;20026;-64
2023/03/21 09:30:50;;;;;;;4.10;1.70;;;;;;;;;;8308936;28;20790;-63
2023/03/21 09:34:52;;;;;;;3.03;1.60;;;;;;;;;;8308870;28;20025;-64
2023/03/21 09:38:52;;;;;;;4.97;2.15;;;;;;;;;;8311760;28;20315;-64
2023/03/21 09:42:58;;;;;;;50.03;29.08;;;;;;;;;;8310472;28;20021;-63
2023/03/21 09:46:59;;;;;;;8.43;5.85;;;;;;;;;;8314112;28;20033;-64
2023/03/21 09:51:01;;;;;;;8.38;4.32;;;;;;;;;;8314197;28;20052;-64
2023/03/21 09:55:03;;;;;;;10.60;4.05;;;;;;;;;;8316644;28;20055;-64
2023/03/21 09:59:06;;;;;;;9.73;5.97;;;;;;;;;;8315888;28;20025;-63
2023/03/21 10:03:16;;;;;;;7.20;4.20;;;;;;;;;;8301405;28;20037;-63
2023/03/21 10:07:18;;;;;;;6.15;4.00;;;;;;;;;;8317807;28;20017;-63
2023/03/21 10:11:27;;;;;;;14.82;6.78;;;;;;;;;;8315267;28;20429;-64
2023/03/21 10:15:27;;;;;;;6.28;3.88;;;;;;;;;;8318114;28;20037;-64
2023/03/21 10:19:27;;;;;;;5.00;2.30;;;;;;;;;;8313999;28;20074;-64
2023/03/21 10:23:28;;;;;;;6.75;3.95;;;;;;;;;;8316681;28;20421;-64
2023/03/21 10:27:28;;;;;;;8.88;3.42;;;;;;;;;;8315583;28;20022;-64
2023/03/21 10:31:29;;;;;;;2.10;1.90;;;;;;;;;;8317010;28;20029;-64
2023/03/21 10:35:32;;;;;;;6.60;4.22;;;;;;;;;;8317354;28;20026;-63
2023/03/21 10:39:34;;;;;;;26.38;11.13;;;;;;;;;;8315641;28;20027;-63
2023/03/21 10:43:36;;;;;;;10.63;4.80;;;;;;;;;;8315599;28;20024;-64
2023/03/21 10:47:36;;;;;;;16.63;6.78;;;;;;;;;;8315553;28;20033;-64
2023/03/21 10:51:38;;;;;;;23.65;11.20;;;;;;;;;;8315610;28;20131;-64
2023/03/21 10:55:39;;;;;;;7.25;3.90;;;;;;;;;;8315445;28;20032;-64
2023/03/21 10:59:42;;;;;;;3.45;2.45;;;;;;;;;;8312921;28;20029;-64
2023/03/21 11:03:45;;;;;;;4.13;2.42;;;;;;;;;;8312348;28;20021;-64
2023/03/21 11:07:46;;;;;;;4.75;2.60;;;;;;;;;;8316921;28;20107;-64
2023/03/21 11:11:49;;;;;;;5.05;2.20;;;;;;;;;;8312498;28;20652;-64
2023/03/21 11:15:53;;;;;;;2.92;2.22;;;;;;;;;;8313252;28;20036;-64
2023/03/21 11:19:58;;;;;;;4.28;2.22;;;;;;;;;;8296982;28;20048;-64
2023/03/21 11:23:58;;;;;;;4.30;2.17;;;;;;;;;;8314855;28;20025;-64
2023/03/21 11:28:05;;;;;;;3.75;2.03;;;;;;;;;;8313085;28;20155;-63
2023/03/21 11:32:23;;;;;;;2.72;2.05;;;;;;;;;;8314823;28;20119;-63
2023/03/21 11:36:26;;;;;;;2.30;1.90;;;;;;;;;;8314490;28;20100;-64
2023/03/21 11:40:26;;;;;;;2.72;1.75;;;;;;;;;;8314499;28;20561;-63
2023/03/21 11:44:33;;;;;;;2.00;1.80;;;;;;;;;;8314179;28;20033;-63
2023/03/21 11:48:41;;;;;;;3.22;2.00;;;;;;;;;;8312981;28;20029;-63
2023/03/21 11:52:46;;;;;;;3.13;2.10;;;;;;;;;;8304028;28;20052;-63
2023/03/21 11:56:51;;;;;;;9.35;2.13;;;;;;;;;;8310956;28;20471;-63
2023/03/21 12:01:05;;;;;;;4.38;2.20;;;;;;;;;;8311965;28;20135;-63
2023/03/21 12:05:20;;;;;;;6.20;2.38;;;;;;;;;;8313335;28;20140;-63
2023/03/21 12:09:26;;;;;;;6.53;2.83;;;;;;;;;;8312053;28;20096;-63
2023/03/21 12:13:39;;;;;;;4.70;2.40;;;;;;;;;;8315058;28;20021;-63
2023/03/21 12:17:47;;;;;;;3.35;2.30;;;;;;;;;;8312852;28;20136;-64
2023/03/21 12:21:53;;;;;;;9.55;4.35;;;;;;;;;;8313616;28;20021;-63
2023/03/21 12:25:59;;;;;;;5.57;2.45;;;;;;;;;;8313298;28;20108;-63
2023/03/21 12:30:23;;;;;;;6.18;2.10;;;;;;;;;;8313062;28;20423;-63
2023/03/21 12:34:34;;;;;;;4.53;2.40;;;;;;;;;;8314076;28;20033;-63
2023/03/21 12:38:34;;;;;;;19.98;8.23;;;;;;;;;;8312377;28;20041;-63
2023/03/21 12:43:07;;;;;;;11.30;5.90;;;;;;;;;;8310015;28;20021;-64
2023/03/21 12:47:12;;;;;;;10.18;5.25;;;;;;;;;;8276545;28;20040;-63
2023/03/21 12:51:14;;;;;;;7.63;4.03;;;;;;;;;;8310475;28;20081;-65
2023/03/21 12:55:22;;;;;;;4.85;3.05;;;;;;;;;;8300776;28;20047;-63
2023/03/21 12:59:45;;;;;;;5.88;3.15;;;;;;;;;;8312305;28;20029;-63
2023/03/21 13:03:50;;;;;;;7.90;4.20;;;;;;;;;;8310527;28;20381;-63
2023/03/21 13:07:58;;;;;;;6.78;3.50;;;;;;;;;;8311202;28;20025;-63
2023/03/21 13:12:05;;;;;;;6.53;3.33;;;;;;;;;;8312641;28;20017;-63
2023/03/21 13:16:11;;;;;;;6.15;4.30;;;;;;;;;;8310918;28;20574;-64
2023/03/21 13:20:18;;;;;;;13.82;7.25;;;;;;;;;;8307880;28;20030;-63
2023/03/21 13:24:39;;;;;;;11.95;6.93;;;;;;;;;;8318541;28;20056;-63
2023/03/21 13:28:40;;;;;;;13.38;7.63;;;;;;;;;;8316912;28;20091;-63
2023/03/21 13:32:41;;;;;;;8.88;5.22;;;;;;;;;;8317376;28;20036;-63
2023/03/21 13:36:44;;;;;;;6.25;4.72;;;;;;;;;;8316068;28;20327;-64
2023/03/21 13:40:49;;;;;;;7.05;4.82;;;;;;;;;;8308970;28;20144;-63
2023/03/21 13:44:54;;;;;;;9.02;5.30;;;;;;;;;;8312105;28;20749;-63
2023/03/21 13:48:55;;;;;;;13.57;7.80;;;;;;;;;;8313389;28;20034;-64
2023/03/21 13:53:18;;;;;;;13.15;7.45;;;;;;;;;;8304917;28;20144;-63
2023/03/21 13:57:32;;;;;;;8.60;5.13;;;;;;;;;;8314831;28;20040;-64
2023/03/21 14:01:33;;;;;;;9.13;5.60;;;;;;;;;;8313606;28;20037;-64
2023/03/21 14:05:34;;;;;;;10.40;7.50;;;;;;;;;;8302160;28;20025;-63
2023/03/21 14:09:39;;;;;;;7.63;5.03;;;;;;;;;;8303522;28;20142;-63
2023/03/21 14:13:43;;;;;;;10.02;5.43;;;;;;;;;;8303783;28;20388;-63
2023/03/21 14:17:53;;;;;;;9.88;6.53;;;;;;;;;;8302844;28;20602;-64
2023/03/21 14:21:54;;;;;;;7.70;5.05;;;;;;;;;;8313181;28;20727;-63
2023/03/21 14:25:54;;;;;;;8.35;5.22;;;;;;;;;;8308948;28;20503;-64
2023/03/21 14:29:55;;;;;;;10.07;5.73;;;;;;;;;;8299117;28;20084;-63
2023/03/21 14:33:57;;;;;;;8.73;5.35;;;;;;;;;;8294707;28;20282;-63
2023/03/21 14:38:02;;;;;;;8.10;4.43;;;;;;;;;;8299040;28;20845;-63
2023/03/21 14:42:04;;;;;;;6.32;3.97;;;;;;;;;;8298889;28;20516;-64
2023/03/21 14:46:04;;;;;;;5.10;3.95;;;;;;;;;;8301662;28;20839;-64
2023/03/21 14:50:06;;;;;;;7.47;3.90;;;;;;;;;;8309648;28;20045;-63
2023/03/21 14:54:08;;;;;;;16.42;10.00;;;;;;;;;;8308211;28;20282;-63
2023/03/21 14:58:12;;;;;;;7.18;4.40;;;;;;;;;;8312432;28;20650;-64
2023/03/21 15:02:16;;;;;;;7.05;3.85;;;;;;;;;;8311211;28;20163;-64
2023/03/21 15:06:17;;;;;;;8.07;4.10;;;;;;;;;;8310220;28;20508;-63
2023/03/21 15:10:20;;;;;;;5.63;4.03;;;;;;;;;;8305233;28;20472;-63
2023/03/21 15:14:25;;;;;;;7.47;3.95;;;;;;;;;;8303565;28;20024;-63
2023/03/21 15:18:32;;;;;;;9.95;4.05;;;;;;;;;;8297350;28;20371;-64
2023/03/21 15:22:44;;;;;;;8.75;4.55;;;;;;;;;;8309568;28;20021;-63
2023/03/21 15:26:46;;;;;;;5.55;3.95;;;;;;;;;;8307385;28;20132;-63
2023/03/21 15:30:48;;;;;;;5.60;3.67;;;;;;;;;;8308078;28;20806;-64
2023/03/21 15:34:49;;;;;;;4.88;3.10;;;;;;;;;;8307769;28;20024;-63
2023/03/21 15:38:49;;;;;;;5.43;3.28;;;;;;;;;;8310405;28;20040;-64
2023/03/21 15:42:50;;;;;;;4.63;3.20;;;;;;;;;;8312280;28;20025;-63
2023/03/21 15:46:51;;;;;;;5.22;3.13;;;;;;;;;;8313157;28;20569;-64
2023/03/21 15:51:02;;;;;;;4.32;3.13;;;;;;;;;;8305659;28;20547;-64
2023/03/21 15:55:15;;;;;;;5.35;2.85;;;;;;;;;;8304112;28;20500;-64
2023/03/21 15:59:19;;;;;;;3.72;2.88;;;;;;;;;;8310202;28;20462;-64
2023/03/21 16:03:19;;;;;;;;;;;;;;;;;;8313457;28;20057;-63
2023/03/21 16:07:19;;;;;;;3.47;2.65;;;;;;;;;;8313619;28;19924;-63
2023/03/21 16:11:27;;;;;;;3.40;2.58;;;;;;;;;;8303151;28;20114;-63
2023/03/21 16:15:27;;;;;;;4.78;3.05;;;;;;;;;;8305702;28;20095;-64
2023/03/21 16:19:28;;;;;;;8.07;2.70;;;;;;;;;;8289270;28;20520;-63
2023/03/21 16:23:29;;;;;;;3.67;2.83;;;;;;;;;;8304487;28;20314;-63
2023/03/21 16:27:29;;;;;;;2.80;2.45;;;;;;;;;;8299179;28;20082;-64
2023/03/21 16:31:31;;;;;;;5.00;3.20;;;;;;;;;;8301459;28;20029;-64
2023/03/21 16:35:32;;;;;;;5.22;3.75;;;;;;;;;;8306735;28;20015;-64
2023/03/21 16:39:32;;;;;;;3.85;3.15;;;;;;;;;;8309100;28;20973;-64
2023/03/21 16:43:32;;;;;;;5.90;3.65;;;;;;;;;;8308972;28;20021;-64
2023/03/21 16:47:32;;;;;;;5.13;2.95;;;;;;;;;;8306108;28;20029;-64
2023/03/21 16:51:34;;;;;;;6.45;3.28;;;;;;;;;;8303074;28;20291;-64
2023/03/21 16:55:36;;;;;;;3.85;3.42;;;;;;;;;;8307655;28;20017;-64
2023/03/21 16:59:37;;;;;;;7.13;3.72;;;;;;;;;;8314679;28;20025;-64
2023/03/21 17:03:38;;;;;;;4.15;3.03;;;;;;;;;;8309237;28;20030;-66
2023/03/21 17:07:38;;;;;;;4.80;2.92;;;;;;;;;;8306750;28;20017;-64
2023/03/21 17:11:40;;;;;;;4.30;2.75;;;;;;;;;;8308162;28;20107;-64
2023/03/21 17:15:41;;;;;;;5.45;3.00;;;;;;;;;;8308583;28;20033;-64
2023/03/21 17:19:41;;;;;;;4.95;3.42;;;;;;;;;;8308148;28;20509;-65
2023/03/21 17:23:42;;;;;;;7.03;4.28;;;;;;;;;;8309476;28;20017;-64
2023/03/21 17:27:42;;;;;;;7.13;4.65;;;;;;;;;;8308605;28;20025;-64
2023/03/21 17:31:46;;;;;;;6.30;4.03;;;;;;;;;;8308986;28;20659;-64
2023/03/21 17:35:46;;;;;;;6.47;4.00;;;;;;;;;;8308282;28;20231;-65
2023/03/21 17:39:46;;;;;;;5.47;3.75;;;;;;;;;;8308580;28;20029;-64
2023/03/21 17:43:46;;;;;;;8.95;4.32;;;;;;;;;;8292628;28;20381;-64
2023/03/21 17:47:47;;;;;;;12.90;6.55;;;;;;;;;;8308773;28;20037;-64
2023/03/21 17:51:47;;;;;;;7.53;4.30;;;;;;;;;;8311066;28;20349;-64
2023/03/21 17:55:47;;;;;;;5.67;3.93;;;;;;;;;;8308099;28;20025;-64
2023/03/21 17:59:47;;;;;;;7.30;3.70;;;;;;;;;;8308615;28;21235;-64
2023/03/21 18:03:48;;;;;;;4.68;3.40;;;;;;;;;;8307559;28;20029;-64
2023/03/21 18:07:50;;;;;;;5.72;3.50;;;;;;;;;;8305714;28;20580;-65
2023/03/21 18:11:50;;;;;;;6.28;3.58;;;;;;;;;;8311005;28;20029;-65
2023/03/21 18:15:50;;;;;;;5.43;3.80;;;;;;;;;;8311562;28;20160;-64
2023/03/21 18:19:50;;;;;;;5.80;3.38;;;;;;;;;;8306748;28;20028;-64
2023/03/21 18:23:51;;;;;;;4.30;3.42;;;;;;;;;;8308322;28;20462;-65
2023/03/21 18:27:51;;;;;;;4.57;2.97;;;;;;;;;;8305974;28;20158;-64
2023/03/21 18:31:51;;;;;;;2.90;2.38;;;;;;;;;;8307984;28;20033;-64
2023/03/21 18:35:51;;;;;;;3.38;2.65;;;;;;;;;;8307106;28;20048;-64
2023/03/21 18:39:52;;;;;;;4.38;2.28;;;;;;;;;;8304273;28;20934;-64
2023/03/21 18:43:52;;;;;;;3.35;2.40;;;;;;;;;;8304577;28;20049;-64
2023/03/21 18:47:52;;;;;;;2.58;2.00;;;;;;;;;;8287678;28;20095;-64
2023/03/21 18:51:52;;;;;;;2.53;2.20;;;;;;;;;;8302433;28;20370;-64
2023/03/21 18:55:53;;;;;;;4.70;3.10;;;;;;;;;;8302432;28;20883;-65
2023/03/21 18:59:53;;;;;;;2.40;2.20;;;;;;;;;;8302083;28;20021;-64
2023/03/21 19:03:58;;;;;;;4.70;2.00;;;;;;;;;;8301267;28;20044;-64
2023/03/21 19:07:59;;;;;;;2.78;1.58;;;;;;;;;;8302509;28;20026;-64
2023/03/21 19:12:00;;;;;;;2.58;1.70;;;;;;;;;;8301974;28;20439;-64
2023/03/21 19:16:00;;;;;;;2.13;1.60;;;;;;;;;;8301604;28;20075;-64
2023/03/21 19:20:00;;;;;;;2.03;1.70;;;;;;;;;;8301890;28;20033;-64
2023/03/21 19:24:01;;;;;;;4.90;1.60;;;;;;;;;;8301846;28;20344;-64
2023/03/21 19:28:02;;;;;;;2.03;1.30;;;;;;;;;;8302769;28;20040;-64
2023/03/21 19:32:02;;;;;;;2.53;1.50;;;;;;;;;;8302114;28;20545;-64
2023/03/21 19:36:03;;;;;;;2.55;1.25;;;;;;;;;;8301623;28;20262;-64
2023/03/21 19:40:04;;;;;;;2.45;1.63;;;;;;;;;;8302214;28;20572;-64
2023/03/21 19:44:05;;;;;;;3.05;1.77;;;;;;;;;;8302317;28;20132;-64
2023/03/21 19:48:05;;;;;;;2.20;1.53;;;;;;;;;;8296461;28;20071;-64
2023/03/21 19:52:09;;;;;;;3.73;2.17;;;;;;;;;;8302220;28;20445;-64
2023/03/21 19:56:09;;;;;;;3.28;1.80;;;;;;;;;;8299591;28;20714;-64
2023/03/21 20:00:10;;;;;;;4.13;2.08;;;;;;;;;;8297307;28;20028;-64
2023/03/21 20:04:10;;;;;;;2.63;1.90;;;;;;;;;;8299109;28;20492;-64
2023/03/21 20:08:10;;;;;;;3.22;1.92;;;;;;;;;;8300651;28;20025;-64
2023/03/21 20:12:10;;;;;;;3.55;2.38;;;;;;;;;;8300387;28;20337;-64
2023/03/21 20:16:11;;;;;;;5.60;2.28;;;;;;;;;;8299300;28;20057;-64
2023/03/21 20:20:16;;;;;;;3.28;2.13;;;;;;;;;;8299453;28;20029;-64
2023/03/21 20:24:17;;;;;;;6.72;2.72;;;;;;;;;;8300212;28;20054;-64
2023/03/21 20:28:17;;;;;;;3.03;2.30;;;;;;;;;;8299070;28;20032;-64
2023/03/21 20:32:17;;;;;;;3.72;2.22;;;;;;;;;;8298236;28;20033;-64
2023/03/21 20:36:19;;;;;;;3.08;2.30;;;;;;;;;;8300621;28;20013;-64
2023/03/21 20:40:20;;;;;;;3.90;2.50;;;;;;;;;;8292562;28;20025;-64
2023/03/21 20:44:21;;;;;;;4.25;2.50;;;;;;;;;;8296954;28;20140;-64
2023/03/21 20:48:23;;;;;;;2.63;2.30;;;;;;;;;;8297287;28;20097;-64
2023/03/21 20:52:27;;;;;;;4.47;2.47;;;;;;;;;;8280131;28;20912;-64
2023/03/21 20:56:29;;;;;;;3.17;2.60;;;;;;;;;;8299073;28;20067;-64
2023/03/21 21:00:29;;;;;;;3.28;2.80;;;;;;;;;;8298746;28;20041;-64
2023/03/21 21:04:31;;;;;;;4.95;2.63;;;;;;;;;;8299425;28;20040;-64
2023/03/21 21:08:34;;;;;;;4.10;2.70;;;;;;;;;;8299905;28;20017;-64
2023/03/21 21:12:35;;;;;;;3.17;2.70;;;;;;;;;;8299735;28;20044;-64
2023/03/21 21:16:35;;;;;;;6.57;3.25;;;;;;;;;;8297631;28;20036;-64
2023/03/21 21:20:36;;;;;;;3.40;2.60;;;;;;;;;;8298996;28;20029;-64
2023/03/21 21:24:36;;;;;;;6.10;3.03;;;;;;;;;;8297307;28;20650;-64
2023/03/21 21:28:37;;;;;;;5.30;3.10;;;;;;;;;;8300486;28;20470;-64
2023/03/21 21:32:38;;;;;;;5.55;3.17;;;;;;;;;;8308062;28;22391;-64
2023/03/21 21:36:38;;;;;;;6.47;3.10;;;;;;;;;;8308905;28;20021;-64
2023/03/21 21:40:38;;;;;;;3.83;3.03;;;;;;;;;;8306687;28;20021;-64
2023/03/21 21:44:43;;;;;;;3.40;2.97;;;;;;;;;;8310261;28;20074;-64
2023/03/21 21:48:43;;;;;;;;;;;;;;;;;;8306407;28;20505;-64
2023/03/21 21:52:51;;;;;;;5.32;3.00;;;;;;;;;;8301581;28;19998;-64
2023/03/21 21:56:52;;;;;;;4.05;2.97;;;;;;;;;;8308708;28;20021;-64
2023/03/21 22:00:56;;;;;;;4.15;3.00;;;;;;;;;;8312193;28;20037;-64
2023/03/21 22:04:57;;;;;;;5.10;3.10;;;;;;;;;;8314706;28;20033;-64
2023/03/21 22:08:57;;;;;;;3.63;2.85;;;;;;;;;;8312636;28;20034;-64
2023/03/21 22:12:58;;;;;;;3.35;2.92;;;;;;;;;;8306290;28;20056;-64
2023/03/21 22:16:58;;;;;;;3.13;2.83;;;;;;;;;;8301944;28;20048;-64
2023/03/21 22:21:00;;;;;;;3.25;2.95;;;;;;;;;;8297812;28;20379;-64
2023/03/21 22:25:01;;;;;;;6.57;3.28;;;;;;;;;;8308169;28;20288;-64
2023/03/21 22:29:02;;;;;;;4.72;3.15;;;;;;;;;;8299625;28;20029;-64
2023/03/21 22:33:02;;;;;;;3.42;2.70;;;;;;;;;;8306401;28;20039;-65
2023/03/21 22:37:02;;;;;;;4.72;2.65;;;;;;;;;;8304791;28;20489;-64
2023/03/21 22:41:03;;;;;;;4.40;2.63;;;;;;;;;;8305522;28;20021;-64
2023/03/21 22:45:04;;;;;;;2.60;2.30;;;;;;;;;;8304257;28;20030;-64
2023/03/21 22:49:05;;;;;;;3.30;2.50;;;;;;;;;;8302893;28;20039;-64
2023/03/21 22:53:05;;;;;;;5.40;2.50;;;;;;;;;;8300496;28;20044;-64
2023/03/21 22:57:07;;;;;;;4.82;2.85;;;;;;;;;;8302081;28;20080;-64
2023/03/21 23:01:07;;;;;;;3.45;2.42;;;;;;;;;;8302400;28;20048;-64
2023/03/21 23:05:08;;;;;;;3.58;2.42;;;;;;;;;;8311351;28;20033;-64
2023/03/21 23:09:09;;;;;;;6.75;3.00;;;;;;;;;;8294082;28;20076;-64
2023/03/21 23:13:09;;;;;;;4.88;2.90;;;;;;;;;;8313057;28;20437;-64
2023/03/21 23:17:11;;;;;;;5.50;3.40;;;;;;;;;;8313269;28;20824;-64
2023/03/21 23:21:12;;;;;;;3.88;2.85;;;;;;;;;;8313213;28;20028;-64
2023/03/21 23:25:12;;;;;;;4.35;3.03;;;;;;;;;;8312374;28;20028;-64
2023/03/21 23:29:12;;;;;;;4.10;3.20;;;;;;;;;;8313636;28;20067;-64
2023/03/21 23:33:13;;;;;;;7.20;3.50;;;;;;;;;;8313364;28;21340;-64
2023/03/21 23:37:13;;;;;;;5.60;3.40;;;;;;;;;;8314009;28;20025;-64
2023/03/21 23:41:14;;;;;;;3.83;2.70;;;;;;;;;;8312663;28;20029;-64
2023/03/21 23:45:15;;;;;;;5.53;3.15;;;;;;;;;;8311442;28;20017;-65
2023/03/21 23:49:15;;;;;;;4.88;3.30;;;;;;;;;;8314611;28;20029;-64
2023/03/21 23:53:15;;;;;;;3.97;2.80;;;;;;;;;;8311996;28;20402;-64
2023/03/21 23:57:16;;;;;;;5.75;3.08;;;;;;;;;;8311659;28;20290;-64
